Racecast

Kino Ampon

Hercules Running Rebels (CA) · 13-14 · PAC · Compare head to head

Athlete rating 126.4 2015 TF season
Best race 126.5 TF
Races 54
Seasons 3 2013 — 2015

RankedNation #2110·CA #178·Team #2 ?

Rating scale ?
Speed rating — all races

Track & Field

TF speed rating

2015 TF 126.4

Hercules Running Rebels (CA) · Grade 13-14

Date Meet Event Result Place Rating Difficulty PR/SR Flags
2015-06-21 USATF Pacific Association Junior Olympic Championships 100mh 14.95 2nd · 1st on team -0.031
2015-06-21 USATF Pacific Association Junior Olympic Championships 100m 12.99 27th · 4th on team -0.031
2015-05-31 PAC (Pacific Association Youth Champions 200mh 27.75 3rd · 1st on team -0.024
2015-05-31 PAC (Pacific Association Youth Champions 200m 25.43 20th · 2nd on team -0.024 ★PR SR
2015-05-16 3M Track Club Track and Field Invitation 200mh 28.39 3rd · 1st on team -0.028
2015-05-16 3M Track Club Track and Field Invitation 100mh 15.43 3rd · 1st on team -0.028
2015-05-02 Running Rebels/Top Pacers Invitational 200mh 27.51 2nd · 1st on team -0.038 ★PR SR
2015-05-02 Running Rebels/Top Pacers Invitational 100mh 14.76 1st · 1st on team -0.038 ★PR SR
2015-04-18 Shor/Sheppard Invitational 200m 25.69 6th · 2nd on team -0.022 PR SR
2015-04-18 Shor/Sheppard Invitational 800m 2:25.25 9th · 2nd on team 126.5 -0.022 ★PR ★R SR RSR
2015-04-18 Shor/Sheppard Invitational 100m 12.7 9th · 2nd on team -0.022 ★PR SR
2015-04-04 Sacramento Speed Factory 400m 59.06 11th · 2nd on team -0.033 SR
2015-04-04 Sacramento Speed Factory 100mh 15.94 3rd · 1st on team -0.033
2015-04-04 Sacramento Speed Factory 100m 12.75 11th · 2nd on team -0.033 PR SR
2015-03-28 Contra Costa Cheetahs 100mh 15.22 4th · 1st on team -0.017 PR SR
2015-03-28 Contra Costa Cheetahs 800m 2:26.71 7th · 2nd on team 126.3 -0.017 PR R SR RSR
2015-03-21 RPM Legacy 100m 13.29 19th · 2nd on team -0.020 PR SR

2014 TF

Hercules Running Rebels (CA) · Grade 13-14

Date Meet Event Result Place Rating Difficulty PR/SR Flags
2014-07-11 California Games 100mh 15.48 4th · 1st on team -0.024 PR SR
2014-07-11 California Games 200mh 28.65 3rd · 1st on team -0.024 PR SR
2014-07-11 California Games 400m 58.92 11th · 1st on team -0.024 ★PR SR
2014-05-25 Los Angeles Jets Invitational 400m 1:00.15 36th · 3rd on team -0.028 PR SR
2014-05-25 Los Angeles Jets Invitational 200mh 28.74 4th · 1st on team -0.028 PR SR
2014-05-25 Los Angeles Jets Invitational 100mh 15.77 6th · 1st on team -0.028 PR SR
2014-05-25 Los Angeles Jets Invitational 100m 13.48 58th · 1st on team -0.028
2014-05-18 3M Invitational 200mh 29.48 3rd · 1st on team -0.028 PR SR
2014-05-18 3M Invitational 100m 13.47 16th · 3rd on team -0.028
2014-05-18 3M Invitational 400m 1:01.46 5th · 2nd on team -0.028 PR SR
2014-05-18 3M Invitational 100mh 17.06 5th · 1st on team -0.028 PR SR
2014-04-05 Sacramento Speed Showcase 400m 1:02.97 20th · 2nd on team -0.033 PR SR
2014-04-05 Sacramento Speed Showcase 100mh 21.08 9th · 1st on team -0.033 PR SR
2014-04-05 Sacramento Speed Showcase 100m 13.32 23rd · 2nd on team -0.033 PR SR
2014-03-29 East County Cheetahs TC 100m 13.82 17th · 2nd on team -0.017 SR

2013 TF

Hercules Running Rebels (CA) · Grade 11-12

Date Meet Event Result Place Rating Difficulty PR/SR Flags
2013-07-12 Track City Classic 80mh 15.49 16th · 2nd on team -0.035
2013-07-12 Track City Classic 100m 13.8 12th · 2nd on team -0.035
2013-07-12 Track City Classic 80mh 13.23 5th · 1st on team -0.035 ★PR SR
2013-07-12 Track City Classic 100m 13.66 9th · 1st on team -0.035 PR SR
2013-07-12 Track City Classic 200m 28.32 11th · 2nd on team -0.035 PR SR
2013-07-12 Track City Classic 200m 28.09 10th · 1st on team -0.035 PR SR
2013-06-21 Pacific Association Junior Olympics (3-day) 80mh 13.56 3rd · 1st on team -0.034 PR SR
2013-06-08 Pacific Association Youth Championship (PAC) - 2-day meet 400m 1:04.33 7th · 1st on team -0.024 PR SR
2013-06-08 Pacific Association Youth Championship (PAC) - 2-day meet 80mh 13.94 3rd · 1st on team -0.024 PR SR
2013-06-01 100 Black Men Tommie Smith 400m 1:04.9 5th · 1st on team -0.036 PR SR
2013-06-01 100 Black Men Tommie Smith 80mh 14.3 6th · 1st on team -0.036
2013-06-01 100 Black Men Tommie Smith 100m 13.89 13th · 2nd on team -0.036
2013-06-01 100 Black Men Tommie Smith 100m 13.79 11th · 1st on team -0.036 PR SR
2013-05-18 3M Track Club 80mh 14.01 5th · 1st on team -0.028 PR SR
2013-05-18 3M Track Club 100m 14.06 16th · 1st on team -0.028
2013-05-18 3M Track Club 400m 1:05.8 11th · 1st on team -0.028
2013-05-04 Hercules / Running Rebels (2-day) 400m 1:05.8 11th · 1st on team -0.038 PR SR
2013-05-04 Hercules / Running Rebels (2-day) 80mh 14.68 5th · 1st on team -0.038 PR SR
2013-05-04 Hercules / Running Rebels (2-day) 100m 13.81 24th · 1st on team -0.038 PR SR
2013-04-20 Shor / Sheppard Classic 100m 13.89 12th · 1st on team -0.022 PR SR
2013-03-30 Stockton Saints 100m 14.66 24th · 1st on team -0.016 PR SR
2013-03-30 Stockton Saints 400m 1:08.26 13th · 1st on team -0.016 PR SR